createdAt,value
2022-11-12T00:01:09.043Z,8.23
2022-11-12T00:03:37.347Z,9.20
2022-11-12T00:06:05.911Z,8.80
2022-11-12T00:08:37.420Z,6.40
2022-11-12T00:11:05.950Z,7.93
2022-11-12T00:13:34.218Z,9.20
2022-11-12T00:16:02.461Z,4.70
2022-11-12T00:18:32.064Z,3.97
2022-11-12T00:21:00.308Z,5.77
2022-11-12T00:23:28.559Z,5.13
2022-11-12T00:26:00.539Z,5.67
2022-11-12T00:28:37.297Z,3.30
2022-11-12T00:31:10.078Z,3.53
2022-11-12T00:33:42.658Z,3.43
2022-11-12T00:36:11.279Z,3.40
2022-11-12T00:38:42.414Z,4.57
2022-11-12T00:41:10.690Z,2.60
2022-11-12T00:43:38.989Z,5.50
2022-11-12T00:46:07.265Z,3.37
2022-11-12T00:48:35.527Z,4.43
2022-11-12T00:51:09.900Z,5.43
2022-11-12T00:53:38.191Z,3.90
2022-11-12T00:56:07.722Z,4.57
2022-11-12T00:58:37.470Z,4.97
2022-11-12T01:01:09.944Z,3.67
2022-11-12T01:03:38.482Z,6.07
2022-11-12T01:06:09.191Z,5.20
2022-11-12T01:08:37.635Z,6.00
2022-11-12T01:11:10.415Z,5.40
2022-11-12T01:13:44.025Z,4.27
2022-11-12T01:16:13.847Z,5.23
2022-11-12T01:18:42.194Z,4.80
2022-11-12T01:21:11.860Z,4.30
2022-11-12T01:23:42.284Z,5.33
2022-11-12T01:26:11.834Z,4.10
2022-11-12T01:28:40.564Z,4.40
2022-11-12T01:31:13.032Z,4.30
2022-11-12T01:33:41.314Z,6.67
2022-11-12T01:36:09.988Z,4.37
2022-11-12T01:38:42.044Z,5.70
2022-11-12T01:41:11.591Z,4.30
2022-11-12T01:43:39.927Z,4.67
2022-11-12T01:46:10.275Z,5.00
2022-11-12T01:48:39.904Z,4.20
2022-11-12T01:51:08.977Z,4.30
2022-11-12T01:53:40.776Z,5.07
2022-11-12T01:56:10.880Z,5.93
2022-11-12T01:58:40.332Z,4.33
2022-11-12T02:01:08.949Z,4.53
2022-11-12T02:03:37.274Z,3.80
2022-11-12T02:06:07.920Z,5.87
2022-11-12T02:08:36.824Z,3.40
2022-11-12T02:11:14.351Z,5.03
2022-11-12T02:14:00.875Z,3.77
2022-11-12T02:16:30.996Z,4.40
2022-11-12T02:18:59.259Z,5.17
2022-11-12T02:21:29.657Z,10.63
2022-11-12T02:24:01.494Z,4.47
2022-11-12T02:26:31.260Z,7.80
2022-11-12T02:28:59.521Z,5.37
2022-11-12T02:31:28.002Z,4.70
2022-11-12T02:33:56.396Z,4.60
2022-11-12T02:36:27.823Z,5.53
2022-11-12T02:38:57.475Z,5.20
2022-11-12T02:41:25.852Z,5.90
2022-11-12T02:43:54.146Z,4.80
2022-11-12T02:46:22.413Z,3.87
2022-11-12T02:48:50.686Z,4.23
2022-11-12T02:51:18.965Z,5.57
2022-11-12T02:53:47.234Z,3.50
2022-11-12T02:56:16.845Z,4.00
2022-11-12T02:58:45.111Z,5.13
2022-11-12T03:01:13.366Z,4.00
2022-11-12T03:03:41.631Z,5.40
2022-11-12T03:06:09.908Z,3.93
2022-11-12T03:08:38.142Z,4.07
2022-11-12T03:11:10.267Z,3.83
2022-11-12T03:13:40.232Z,3.40
2022-11-12T03:16:08.544Z,4.93
2022-11-12T03:18:37.630Z,3.67
2022-11-12T03:21:05.988Z,3.30
2022-11-12T03:23:34.235Z,4.83
2022-11-12T03:26:03.925Z,4.73
2022-11-12T03:28:32.542Z,2.50
2022-11-12T03:31:02.747Z,4.83
2022-11-12T03:33:31.022Z,2.53
2022-11-12T03:35:59.295Z,4.30
2022-11-12T03:38:27.941Z,3.50
2022-11-12T03:40:56.344Z,6.23
2022-11-12T03:43:24.691Z,4.03
2022-11-12T03:45:54.701Z,4.43
2022-11-12T03:48:24.657Z,3.73
2022-11-12T03:50:53.208Z,3.30
2022-11-12T03:53:21.520Z,5.10
2022-11-12T03:55:49.771Z,3.40
2022-11-12T03:58:18.055Z,3.47
2022-11-12T04:00:46.356Z,4.73
2022-11-12T04:03:14.712Z,4.10
2022-11-12T04:06:01.961Z,3.50
2022-11-12T04:08:39.580Z,3.60
2022-11-12T04:11:08.849Z,5.03
2022-11-12T04:13:38.563Z,2.93
2022-11-12T04:16:25.503Z,3.87
2022-11-12T04:19:15.136Z,5.77
2022-11-12T04:21:54.577Z,3.67
2022-11-12T04:24:41.891Z,3.37
2022-11-12T04:27:10.909Z,4.77
2022-11-12T04:29:56.574Z,3.10
2022-11-12T04:32:25.409Z,3.20
2022-11-12T04:34:54.154Z,3.50
2022-11-12T04:37:24.244Z,5.63
2022-11-12T04:39:55.480Z,3.97
2022-11-12T04:42:41.297Z,4.50
2022-11-12T04:45:10.573Z,5.63
2022-11-12T04:47:40.621Z,3.40
2022-11-12T04:50:11.133Z,3.83
2022-11-12T04:52:40.783Z,3.87
2022-11-12T04:55:09.453Z,3.87
2022-11-12T04:57:38.016Z,3.60
2022-11-12T05:00:08.595Z,3.00
2022-11-12T05:02:36.872Z,3.67
2022-11-12T05:05:05.327Z,4.10
2022-11-12T05:07:34.043Z,3.20
2022-11-12T05:10:03.636Z,4.47
2022-11-12T05:12:31.887Z,3.37
2022-11-12T05:15:00.209Z,3.43
2022-11-12T05:17:28.675Z,3.23
2022-11-12T05:19:56.943Z,3.00
2022-11-12T05:22:42.594Z,4.40
2022-11-12T05:25:13.869Z,3.03
2022-11-12T05:27:42.105Z,4.70
2022-11-12T05:30:10.974Z,3.60
2022-11-12T05:32:39.259Z,3.87
2022-11-12T05:35:07.784Z,2.03
2022-11-12T05:37:36.046Z,3.33
2022-11-12T05:40:04.315Z,3.80
2022-11-12T05:42:33.944Z,3.03
2022-11-12T05:45:02.186Z,3.57
2022-11-12T05:47:30.429Z,3.30
2022-11-12T05:49:58.667Z,3.40
2022-11-12T05:52:26.916Z,3.67
2022-11-12T05:54:55.156Z,3.20
2022-11-12T05:57:23.413Z,2.97
2022-11-12T05:59:53.025Z,4.13
2022-11-12T06:02:21.368Z,3.60
2022-11-12T06:04:49.704Z,3.17
2022-11-12T06:07:18.029Z,3.10
2022-11-12T06:09:46.329Z,3.97
2022-11-12T06:12:14.585Z,4.40
2022-11-12T06:14:42.874Z,5.47
2022-11-12T06:17:12.473Z,5.60
2022-11-12T06:19:40.717Z,4.77
2022-11-12T06:22:08.996Z,6.23
2022-11-12T06:24:37.275Z,4.87
2022-11-12T06:27:05.605Z,3.60
2022-11-12T06:29:34.503Z,3.43
2022-11-12T06:32:02.770Z,2.20
2022-11-12T06:34:32.393Z,2.73
2022-11-12T06:37:00.657Z,5.47
2022-11-12T06:39:28.957Z,2.97
2022-11-12T06:41:57.193Z,4.77
2022-11-12T06:44:25.490Z,3.97
2022-11-12T06:46:53.764Z,3.43
2022-11-12T06:49:22.042Z,3.80
2022-11-12T06:51:53.092Z,3.13
2022-11-12T06:54:21.333Z,2.93
2022-11-12T06:56:49.650Z,4.20
2022-11-12T06:59:18.028Z,3.80
2022-11-12T07:01:46.398Z,4.23
2022-11-12T07:04:14.664Z,3.63
2022-11-12T07:06:42.952Z,6.00
2022-11-12T07:09:12.905Z,3.47
2022-11-12T07:11:41.177Z,3.67
2022-11-12T07:14:09.495Z,5.97
2022-11-12T07:16:37.794Z,6.07
2022-11-12T07:19:06.067Z,7.50
2022-11-12T07:21:34.321Z,6.00
2022-11-12T07:24:04.604Z,5.17
2022-11-12T07:26:34.213Z,3.90
2022-11-12T07:29:02.509Z,4.73
2022-11-12T07:31:30.747Z,5.27
2022-11-12T07:33:59.021Z,4.83
2022-11-12T07:36:27.255Z,3.90
2022-11-12T07:38:55.772Z,5.47
2022-11-12T07:41:27.711Z,4.97
2022-11-12T07:43:57.419Z,4.33
2022-11-12T07:46:26.794Z,4.23
2022-11-12T07:48:56.173Z,5.73
2022-11-12T07:51:25.611Z,6.07
2022-11-12T07:53:59.446Z,6.63
2022-11-12T07:56:28.633Z,6.60
2022-11-12T07:58:58.367Z,7.60
2022-11-12T08:01:30.003Z,7.97
2022-11-12T08:03:58.351Z,6.63
2022-11-12T08:06:26.651Z,8.10
2022-11-12T08:08:54.940Z,9.90
2022-11-12T08:11:23.542Z,5.47
2022-11-12T08:13:52.989Z,6.37
2022-11-12T08:16:22.652Z,7.23
2022-11-12T08:18:50.971Z,6.77
2022-11-12T08:21:19.883Z,6.23
2022-11-12T08:23:48.531Z,8.80
2022-11-12T08:26:17.594Z,8.73
2022-11-12T08:28:45.868Z,5.83
2022-11-12T08:31:15.206Z,3.23
2022-11-12T08:33:47.985Z,3.40
2022-11-12T08:36:16.811Z,1.90
2022-11-12T08:38:45.180Z,2.87
2022-11-12T08:41:14.595Z,1.90
2022-11-12T08:43:43.305Z,2.20
2022-11-12T08:46:11.603Z,3.20
2022-11-12T08:48:40.992Z,1.90
2022-11-12T08:51:10.669Z,2.77
2022-11-12T08:53:38.937Z,2.20
2022-11-12T08:56:07.328Z,3.13
2022-11-12T08:58:35.595Z,2.60
2022-11-12T09:01:06.189Z,2.30
2022-11-12T09:03:34.490Z,2.30
2022-11-12T09:06:04.710Z,2.20
2022-11-12T09:08:35.781Z,2.23
2022-11-12T09:11:04.405Z,3.80
2022-11-12T09:13:33.119Z,2.70
2022-11-12T09:16:02.452Z,2.40
2022-11-12T09:18:31.091Z,2.40
2022-11-12T09:21:03.321Z,2.53
2022-11-12T09:23:31.609Z,3.00
2022-11-12T09:26:01.273Z,2.40
2022-11-12T09:28:29.830Z,2.00
2022-11-12T09:30:58.178Z,2.60
2022-11-12T09:33:27.427Z,2.10
2022-11-12T09:35:55.957Z,1.80
2022-11-12T09:38:24.909Z,2.80
2022-11-12T09:41:14.117Z,1.40
2022-11-12T09:43:46.259Z,2.03
2022-11-12T09:46:33.344Z,2.57
2022-11-12T09:49:04.255Z,2.87
2022-11-12T09:51:34.226Z,2.73
2022-11-12T09:54:04.543Z,1.53
2022-11-12T09:56:33.143Z,1.67
2022-11-12T09:59:02.908Z,3.40
2022-11-12T10:01:40.604Z,2.37
2022-11-12T10:04:19.221Z,2.43
2022-11-12T10:06:50.234Z,3.10
2022-11-12T10:09:21.363Z,2.20
2022-11-12T10:12:16.557Z,1.80
2022-11-12T10:14:51.581Z,2.07
2022-11-12T10:17:22.452Z,3.10
2022-11-12T10:19:59.845Z,1.53
2022-11-12T10:22:35.433Z,1.83
2022-11-12T10:25:11.900Z,2.83
2022-11-12T10:27:42.217Z,2.20
2022-11-12T10:30:16.608Z,2.07
2022-11-12T10:32:45.909Z,2.45
2022-11-12T10:35:16.304Z,2.43
2022-11-12T10:37:47.404Z,2.60
2022-11-12T10:40:28.177Z,2.27
2022-11-12T10:43:00.333Z,2.43
2022-11-12T10:45:30.159Z,2.27
2022-11-12T10:47:59.458Z,2.80
2022-11-12T10:50:32.156Z,2.20
2022-11-12T10:53:01.968Z,2.20
2022-11-12T10:55:31.653Z,1.87
2022-11-12T10:58:05.435Z,2.70
2022-11-12T11:00:35.224Z,1.70
2022-11-12T11:03:04.378Z,2.73
2022-11-12T11:05:34.061Z,2.50
2022-11-12T11:08:02.913Z,2.00
2022-11-12T11:10:32.182Z,2.03
2022-11-12T11:13:20.052Z,2.73
2022-11-12T11:16:03.374Z,1.77
2022-11-12T11:18:32.592Z,2.10
2022-11-12T11:21:07.116Z,2.20
2022-11-12T11:23:38.030Z,2.10
2022-11-12T11:26:11.965Z,2.03
2022-11-12T11:28:42.868Z,1.60
2022-11-12T11:31:20.099Z,1.80
2022-11-12T11:33:50.517Z,1.80
2022-11-12T11:36:22.057Z,1.30
2022-11-12T11:38:59.083Z,1.60
2022-11-12T11:41:45.218Z,2.03
2022-11-12T11:44:18.651Z,1.40
2022-11-12T11:47:00.489Z,1.90
2022-11-12T11:49:58.817Z,2.10
2022-11-12T11:52:37.705Z,1.90
2022-11-12T11:55:17.487Z,2.20
2022-11-12T11:57:50.697Z,2.03
2022-11-12T12:00:20.844Z,1.77
2022-11-12T12:03:02.213Z,2.77
2022-11-12T12:05:34.814Z,1.80
2022-11-12T12:08:05.012Z,2.17
2022-11-12T12:11:06.374Z,1.63
2022-11-12T12:13:32.137Z,2.00
2022-11-12T12:16:10.481Z,1.70
2022-11-12T12:18:44.284Z,1.77
2022-11-12T12:21:15.763Z,2.33
2022-11-12T12:23:47.993Z,2.10
2022-11-12T12:26:20.475Z,2.00
2022-11-12T12:28:52.807Z,2.07
2022-11-12T12:31:22.906Z,2.30
2022-11-12T12:33:54.660Z,2.17
2022-11-12T12:36:26.613Z,1.80
2022-11-12T12:38:58.233Z,2.03
2022-11-12T12:41:28.626Z,2.40
2022-11-12T12:43:58.205Z,1.90
2022-11-12T12:46:29.206Z,2.30
2022-11-12T12:49:00.057Z,2.27
2022-11-12T12:51:31.040Z,2.30
2022-11-12T12:53:59.311Z,1.67
2022-11-12T12:56:47.797Z,1.90
2022-11-12T12:59:23.707Z,2.40
2022-11-12T13:01:58.007Z,2.57
2022-11-12T13:04:44.823Z,2.60
2022-11-12T13:07:17.495Z,2.87
2022-11-12T13:09:45.866Z,2.00
2022-11-12T13:12:23.199Z,1.97
2022-11-12T13:15:10.257Z,2.17
2022-11-12T13:17:59.648Z,3.10
2022-11-12T13:20:35.685Z,2.60
2022-11-12T13:23:07.238Z,2.80
2022-11-12T13:25:35.524Z,2.53
2022-11-12T13:28:10.940Z,2.67
2022-11-12T13:30:59.433Z,2.80
2022-11-12T13:33:30.409Z,2.93
2022-11-12T13:36:17.447Z,2.60
2022-11-12T13:38:47.144Z,4.23
2022-11-12T13:41:17.967Z,3.30
2022-11-12T13:43:48.281Z,3.23
2022-11-12T13:46:26.500Z,3.77
2022-11-12T13:48:58.703Z,4.40
2022-11-12T13:51:30.339Z,2.43
2022-11-12T13:54:00.311Z,3.60
2022-11-12T13:56:29.388Z,2.80
2022-11-12T13:58:58.049Z,3.23
2022-11-12T14:01:26.511Z,3.23
2022-11-12T14:03:54.920Z,3.83
2022-11-12T14:06:26.824Z,3.83
2022-11-12T14:09:04.685Z,3.47
2022-11-12T14:11:40.260Z,3.40
2022-11-12T14:14:13.729Z,2.70
2022-11-12T14:16:51.696Z,5.50
2022-11-12T14:19:25.926Z,3.60
2022-11-12T14:22:01.066Z,3.70
2022-11-12T14:24:30.675Z,3.53
2022-11-12T14:26:58.937Z,3.57
2022-11-12T14:29:32.949Z,2.77
2022-11-12T14:32:03.789Z,4.60
2022-11-12T14:34:33.499Z,3.77
2022-11-12T14:37:01.921Z,3.50
2022-11-12T14:39:32.307Z,4.37
2022-11-12T14:42:01.285Z,3.30
2022-11-12T14:44:34.304Z,3.90
2022-11-12T14:47:03.319Z,3.30
2022-11-12T14:49:39.380Z,5.17
2022-11-12T14:52:13.567Z,4.67
2022-11-12T14:54:51.316Z,4.23
2022-11-12T14:57:20.956Z,3.80
2022-11-12T14:59:49.232Z,3.70
2022-11-12T15:02:33.549Z,4.37
2022-11-12T15:05:14.254Z,4.27
2022-11-12T15:07:53.439Z,2.80
2022-11-12T15:10:34.388Z,3.73
2022-11-12T15:13:04.273Z,3.07
2022-11-12T15:15:33.285Z,3.10
2022-11-12T15:18:02.762Z,4.83
2022-11-12T15:20:31.135Z,3.90
2022-11-12T15:22:59.498Z,3.83
2022-11-12T15:25:29.136Z,5.93
2022-11-12T15:28:13.428Z,4.30
2022-11-12T15:30:41.739Z,4.60
2022-11-12T15:33:10.939Z,5.87
2022-11-12T15:35:43.782Z,4.20
2022-11-12T15:38:14.986Z,3.70
2022-11-12T15:40:53.175Z,4.33
2022-11-12T15:43:30.261Z,6.30
2022-11-12T15:46:01.558Z,6.80
2022-11-12T15:48:29.888Z,6.20
2022-11-12T15:50:58.176Z,8.27
2022-11-12T15:53:26.783Z,8.20
2022-11-12T15:55:55.623Z,8.90
2022-11-12T15:58:29.289Z,6.40
2022-11-12T16:00:58.997Z,5.27
2022-11-12T16:03:27.734Z,4.53
2022-11-12T16:05:56.211Z,3.33
2022-11-12T16:08:24.618Z,4.40
2022-11-12T16:10:52.968Z,3.60
2022-11-12T16:13:26.112Z,4.70
2022-11-12T16:15:54.837Z,4.97
2022-11-12T16:18:24.516Z,5.50
2022-11-12T16:20:52.801Z,3.70
2022-11-12T16:23:21.123Z,4.10
2022-11-12T16:25:49.685Z,3.50
2022-11-12T16:28:18.704Z,4.13
2022-11-12T16:30:47.374Z,3.80
2022-11-12T16:33:15.673Z,3.60
2022-11-12T16:35:45.398Z,4.77
2022-11-12T16:38:15.355Z,4.17
2022-11-12T16:40:44.071Z,4.10
2022-11-12T16:43:15.324Z,5.33
2022-11-12T16:45:44.479Z,6.63
2022-11-12T16:48:15.351Z,6.87
2022-11-12T16:50:45.146Z,5.60
2022-11-12T16:53:13.414Z,5.80
2022-11-12T16:55:41.871Z,6.37
2022-11-12T16:58:13.666Z,5.20
2022-11-12T17:00:42.804Z,5.60
2022-11-12T17:03:12.921Z,4.13
2022-11-12T17:05:41.162Z,4.00
2022-11-12T17:08:11.641Z,5.23
2022-11-12T17:10:40.049Z,2.30
2022-11-12T17:13:08.350Z,3.70
2022-11-12T17:15:36.596Z,3.80
2022-11-12T17:18:05.002Z,3.03
2022-11-12T17:20:34.033Z,3.37
2022-11-12T17:23:02.385Z,3.60
2022-11-12T17:25:32.081Z,3.77
2022-11-12T17:28:01.556Z,3.00
2022-11-12T17:30:30.055Z,3.37
2022-11-12T17:33:00.547Z,3.57
2022-11-12T17:35:28.828Z,4.80
2022-11-12T17:37:57.102Z,3.40
2022-11-12T17:40:25.413Z,2.03
2022-11-12T17:42:55.172Z,3.80
2022-11-12T17:45:23.466Z,2.90
2022-11-12T17:47:51.767Z,3.03
2022-11-12T17:50:20.059Z,2.03
2022-11-12T17:52:48.313Z,3.90
2022-11-12T17:55:16.628Z,3.00
2022-11-12T17:57:47.229Z,3.97
2022-11-12T18:00:18.176Z,2.90
2022-11-12T18:02:46.498Z,2.43
2022-11-12T18:05:14.812Z,2.77
2022-11-12T18:07:46.016Z,2.10
2022-11-12T18:10:19.235Z,1.90
2022-11-12T18:12:47.904Z,4.40
2022-11-12T18:15:17.557Z,3.07
2022-11-12T18:17:45.835Z,3.20
2022-11-12T18:20:14.326Z,2.93
2022-11-12T18:22:45.460Z,3.17
2022-11-12T18:25:13.826Z,3.23
2022-11-12T18:27:42.166Z,4.00
2022-11-12T18:30:15.009Z,3.30
2022-11-12T18:32:47.793Z,3.87
2022-11-12T18:35:16.122Z,3.47
2022-11-12T18:37:44.413Z,2.70
2022-11-12T18:40:13.089Z,2.30
2022-11-12T18:42:41.419Z,3.47
2022-11-12T18:45:10.725Z,3.80
2022-11-12T18:47:39.143Z,9.53
2022-11-12T18:50:09.357Z,4.90
2022-11-12T18:52:37.814Z,4.30
2022-11-12T18:55:06.740Z,3.47
2022-11-12T18:57:35.091Z,3.50
2022-11-12T19:00:03.612Z,2.90
2022-11-12T19:04:10.869Z,4.90
2022-11-12T19:06:39.069Z,5.13
2022-11-12T19:09:10.178Z,5.10
2022-11-12T19:11:38.430Z,5.53
2022-11-12T19:14:08.893Z,4.97
2022-11-12T19:16:38.292Z,4.63
2022-11-12T19:19:06.422Z,4.87
2022-11-12T19:21:35.907Z,5.57
2022-11-12T19:24:04.097Z,4.60
2022-11-12T19:26:32.245Z,6.33
2022-11-12T19:29:00.427Z,7.60
2022-11-12T19:31:29.130Z,5.60
2022-11-12T19:33:57.522Z,5.87
2022-11-12T19:36:27.126Z,6.33
2022-11-12T19:38:57.865Z,5.80
2022-11-12T19:41:26.518Z,6.90
2022-11-12T19:43:54.836Z,5.30
2022-11-12T19:46:22.864Z,6.30
2022-11-12T19:48:51.807Z,6.50
2022-11-12T19:51:19.973Z,7.10
2022-11-12T19:53:47.934Z,6.37
2022-11-12T19:56:18.786Z,7.03
2022-11-12T19:58:48.318Z,7.70
2022-11-12T20:01:18.377Z,6.80
2022-11-12T20:03:46.890Z,5.60
2022-11-12T20:06:17.735Z,5.03
2022-11-12T20:08:46.267Z,7.47
2022-11-12T20:11:16.112Z,8.50
2022-11-12T20:13:45.543Z,6.50
2022-11-12T20:16:16.122Z,5.80
2022-11-12T20:18:50.814Z,6.93
2022-11-12T20:21:19.164Z,7.67
2022-11-12T20:23:47.352Z,9.33
2022-11-12T20:26:16.909Z,11.80
2022-11-12T20:28:46.534Z,36.57
2022-11-12T20:31:16.873Z,20.47
2022-11-12T20:33:44.871Z,10.77
2022-11-12T20:36:14.354Z,7.70
2022-11-12T20:38:43.757Z,5.17
2022-11-12T20:41:15.063Z,6.53
2022-11-12T20:43:43.557Z,7.83
2022-11-12T20:46:13.934Z,6.77
2022-11-12T20:48:43.837Z,5.90
2022-11-12T20:51:29.218Z,9.87
2022-11-12T20:54:00.295Z,9.10
2022-11-12T20:56:29.914Z,14.30
2022-11-12T20:58:58.516Z,15.60
2022-11-12T21:01:29.193Z,15.23
2022-11-12T21:03:58.447Z,15.50
2022-11-12T21:06:29.088Z,10.77
2022-11-12T21:08:59.545Z,11.40
2022-11-12T21:11:27.610Z,13.93
2022-11-12T21:13:55.592Z,13.40
2022-11-12T21:16:23.609Z,14.67
2022-11-12T21:18:53.042Z,15.57
2022-11-12T21:21:21.115Z,14.40
2022-11-12T21:23:50.800Z,15.00
2022-11-12T21:26:20.625Z,13.07
2022-11-12T21:28:50.172Z,12.70
2022-11-12T21:31:20.293Z,8.90
2022-11-12T21:33:51.763Z,9.97
2022-11-12T21:36:20.405Z,9.23
2022-11-12T21:38:48.846Z,8.67
2022-11-12T21:41:18.262Z,9.53
2022-11-12T21:43:46.817Z,12.10
2022-11-12T21:46:17.862Z,10.93
2022-11-12T21:48:49.015Z,14.90
2022-11-12T21:51:21.772Z,11.10
2022-11-12T21:53:54.646Z,12.57
2022-11-12T21:56:22.582Z,14.43
2022-11-12T21:58:50.553Z,13.33
2022-11-12T22:01:20.819Z,11.20
2022-11-12T22:03:50.403Z,7.83
2022-11-12T22:06:20.572Z,8.20
2022-11-12T22:08:51.754Z,9.70
2022-11-12T22:11:20.076Z,8.73
2022-11-12T22:13:48.140Z,13.57
2022-11-12T22:16:18.452Z,13.50
2022-11-12T22:18:48.629Z,9.80
2022-11-12T22:21:19.072Z,9.60
2022-11-12T22:23:48.617Z,10.17
2022-11-12T22:26:18.468Z,7.80
2022-11-12T22:28:46.409Z,8.00
2022-11-12T22:31:16.093Z,11.07
2022-11-12T22:33:44.380Z,10.67
2022-11-12T22:36:14.428Z,11.90
2022-11-12T22:38:44.043Z,9.70
2022-11-12T22:41:15.240Z,11.33
2022-11-12T22:43:43.869Z,10.10
2022-11-12T22:46:14.014Z,11.60
2022-11-12T22:48:42.266Z,11.10
2022-11-12T22:51:14.103Z,12.53
2022-11-12T22:53:42.362Z,9.30
2022-11-12T22:56:12.129Z,8.43
2022-11-12T22:58:43.123Z,8.43
2022-11-12T23:01:19.038Z,6.50
2022-11-12T23:03:47.068Z,7.40
2022-11-12T23:06:15.176Z,7.70
2022-11-12T23:08:43.488Z,9.03
2022-11-12T23:11:13.382Z,7.80
2022-11-12T23:13:43.114Z,9.90
2022-11-12T23:16:13.208Z,7.23
2022-11-12T23:18:41.359Z,7.93
2022-11-12T23:21:11.221Z,7.00
2022-11-12T23:23:39.614Z,7.40
2022-11-12T23:26:09.912Z,6.80
2022-11-12T23:28:38.098Z,8.07
2022-11-12T23:31:12.238Z,7.53
2022-11-12T23:33:40.620Z,7.37
2022-11-12T23:36:10.573Z,8.07
2022-11-12T23:38:38.653Z,7.33
2022-11-12T23:41:07.386Z,9.07
2022-11-12T23:43:35.361Z,9.27
2022-11-12T23:46:03.350Z,10.23
2022-11-12T23:48:32.799Z,9.70
2022-11-12T23:51:03.449Z,8.37
2022-11-12T23:53:34.748Z,10.50
2022-11-12T23:56:03.226Z,11.27
2022-11-12T23:58:31.662Z,10.33
